Time;durP1;ratioP1;P1;durP2;ratioP2;P2;SDS_P1;SDS_P2;PMS_P1;PMS_P2;Temp;Humidity;BMP_temperature;BMP_pressure;BME280_temperature;BME280_humidity;BME280_pressure;Samples;Min_cycle;Max_cycle;Signal;HPM_P1;HPM_P2
2022/05/08 00:01:48;;;;;;;19.43;17.53;;;12.70;99.90;;;;;;4950922;29;20188;-69
2022/05/08 00:04:13;;;;;;;19.60;17.80;;;12.80;99.90;;;;;;4954009;29;20208;-69
2022/05/08 00:06:39;;;;;;;19.80;18.20;;;12.70;99.90;;;;;;4954862;29;20189;-68
2022/05/08 00:09:04;;;;;;;17.27;15.70;;;12.70;99.90;;;;;;4952775;28;20200;-69
2022/05/08 00:11:30;;;;;;;18.13;16.63;;;12.60;99.90;;;;;;4953378;29;20236;-68
2022/05/08 00:13:55;;;;;;;20.10;18.50;;;12.60;99.90;;;;;;4953015;29;20185;-68
2022/05/08 00:16:21;;;;;;;18.70;17.10;;;12.50;99.90;;;;;;4955461;29;20184;-68
2022/05/08 00:18:47;;;;;;;18.37;16.67;;;12.40;99.90;;;;;;4952349;29;20205;-69
2022/05/08 00:21:12;;;;;;;19.33;17.73;;;12.50;99.90;;;;;;4954211;29;20185;-68
2022/05/08 00:23:38;;;;;;;18.07;16.57;;;12.40;99.90;;;;;;4950077;29;20205;-69
2022/05/08 00:26:07;;;;;;;17.17;15.57;;;12.30;99.90;;;;;;4952821;29;20224;-68
2022/05/08 00:28:33;;;;;;;19.23;17.73;;;12.20;99.90;;;;;;4952079;28;20701;-68
2022/05/08 00:30:59;;;;;;;18.30;16.57;;;12.20;99.90;;;;;;4953398;28;20471;-69
2022/05/08 00:33:24;;;;;;;19.00;17.30;;;12.20;99.90;;;;;;4953387;29;20453;-68
2022/05/08 00:35:50;;;;;;;17.90;16.60;;;12.30;99.90;;;;;;4950143;29;20177;-69
2022/05/08 00:38:15;;;;;;;18.17;16.57;;;12.30;99.90;;;;;;4951710;29;20252;-68
2022/05/08 00:40:41;;;;;;;18.77;17.27;;;12.30;99.90;;;;;;4952893;29;20714;-68
2022/05/08 00:43:28;;;;;;;18.90;17.20;;;12.20;99.90;;;;;;4952237;29;20185;-69
2022/05/08 00:45:54;;;;;;;20.37;18.50;;;12.10;99.90;;;;;;4952812;29;20189;-68
2022/05/08 00:48:20;;;;;;;18.30;16.43;;;12.20;99.90;;;;;;4951505;28;20472;-69
2022/05/08 00:50:46;;;;;;;18.10;16.40;;;12.10;99.90;;;;;;4951678;29;20475;-69
2022/05/08 00:53:11;;;;;;;18.03;16.50;;;12.00;99.90;;;;;;4953908;28;20244;-68
2022/05/08 00:55:37;;;;;;;19.60;18.00;;;11.90;99.90;;;;;;4950810;29;20260;-69
2022/05/08 00:58:03;;;;;;;19.93;18.07;;;11.90;99.90;;;;;;4953646;28;20197;-68
2022/05/08 01:00:29;;;;;;;18.53;17.13;;;11.90;99.90;;;;;;4952496;29;20655;-68
2022/05/08 01:02:57;;;;;;;17.93;16.33;;;11.90;99.90;;;;;;4953832;29;20454;-68
2022/05/08 01:05:23;;;;;;;17.90;16.40;;;11.80;99.90;;;;;;4949814;29;20185;-69
2022/05/08 01:07:49;;;;;;;17.23;15.50;;;11.80;99.90;;;;;;4950509;29;20487;-68
2022/05/08 01:10:15;;;;;;;18.87;17.07;;;11.60;99.90;;;;;;4950851;29;20897;-69
2022/05/08 01:12:44;;;;;;;19.33;17.60;;;11.60;99.90;;;;;;4951077;29;20208;-68
2022/05/08 01:15:14;;;;;;;18.03;16.43;;;11.60;99.90;;;;;;4951701;29;20537;-69
2022/05/08 01:17:39;;;;;;;18.60;17.00;;;11.60;99.90;;;;;;4950811;28;20547;-69
2022/05/08 01:20:06;;;;;;;19.70;18.00;;;11.60;99.90;;;;;;4951197;29;21031;-68
2022/05/08 01:22:32;;;;;;;20.37;18.43;;;11.60;99.90;;;;;;4950306;29;20204;-69
2022/05/08 01:25:02;;;;;;;21.27;19.17;;;11.70;99.90;;;;;;4950889;29;20958;-68
2022/05/08 01:27:27;;;;;;;19.33;17.57;;;11.70;99.90;;;;;;4953093;28;20451;-69
2022/05/08 01:29:53;;;;;;;19.00;17.20;;;11.70;99.90;;;;;;4949748;29;20860;-68
2022/05/08 01:32:19;;;;;;;21.67;19.57;;;11.70;99.90;;;;;;4952926;29;20191;-69
2022/05/08 01:34:45;;;;;;;20.33;18.63;;;11.70;99.90;;;;;;4949758;29;20180;-68
2022/05/08 01:37:10;;;;;;;22.27;20.37;;;11.70;99.90;;;;;;4951430;29;20825;-69
2022/05/08 01:39:36;;;;;;;21.77;19.60;;;11.70;99.90;;;;;;4950579;28;20213;-68
2022/05/08 01:42:04;;;;;;;22.43;20.37;;;11.70;99.90;;;;;;4952118;29;20551;-68
2022/05/08 01:44:30;;;;;;;21.80;19.90;;;11.60;99.90;;;;;;4952337;29;20177;-69
2022/05/08 01:49:40;;;;;;;23.07;20.80;;;11.60;99.90;;;;;;4951589;29;20266;-68
2022/05/08 01:52:06;;;;;;;22.20;20.30;;;11.60;99.90;;;;;;4951533;29;20966;-69
2022/05/08 01:54:31;;;;;;;22.93;20.53;;;11.50;99.90;;;;;;4951838;29;20651;-68
2022/05/08 01:56:57;;;;;;;24.43;22.07;;;11.50;99.90;;;;;;4950675;29;20452;-69
2022/05/08 01:59:22;;;;;;;22.53;20.53;;;11.40;99.90;;;;;;4952397;28;20209;-68
2022/05/08 02:01:48;;;;;;;22.23;20.33;;;11.40;99.90;;;;;;4950989;29;20259;-68
2022/05/08 02:04:15;;;;;;;22.43;20.43;;;11.40;99.90;;;;;;4951670;29;20650;-69
2022/05/08 02:06:44;;;;;;;22.73;20.70;;;11.40;99.90;;;;;;4950661;29;20247;-68
2022/05/08 02:09:10;;;;;;;23.97;21.57;;;11.40;99.90;;;;;;4952198;28;20471;-68
2022/05/08 02:11:35;;;;;;;24.20;22.13;;;11.30;99.90;;;;;;4948132;29;20449;-69
2022/05/08 02:14:02;;;;;;;21.87;19.97;;;11.30;99.90;;;;;;4951907;29;20177;-69
2022/05/08 02:16:29;;;;;;;22.57;20.63;;;11.30;99.90;;;;;;4947963;29;20188;-68
2022/05/08 02:18:55;;;;;;;23.37;21.17;;;11.30;99.90;;;;;;4952375;28;20551;-68
2022/05/08 02:21:21;;;;;;;22.00;20.03;;;11.30;99.90;;;;;;4951231;29;20440;-69
2022/05/08 02:23:47;;;;;;;23.13;21.10;;;11.20;99.90;;;;;;4952010;29;20444;-69
2022/05/08 02:26:13;;;;;;;21.80;19.77;;;11.20;99.90;;;;;;4950155;29;20459;-69
2022/05/08 02:28:39;;;;;;;22.17;20.20;;;11.20;99.90;;;;;;4951336;28;20217;-69
2022/05/08 02:31:05;;;;;;;25.00;22.60;;;11.30;99.90;;;;;;4950542;29;20268;-68
2022/05/08 02:33:30;;;;;;;21.90;19.80;;;11.30;99.90;;;;;;4954566;28;20445;-68
2022/05/08 02:35:56;;;;;;;24.20;20.73;;;11.30;99.90;;;;;;4954465;29;20574;-69
2022/05/08 02:38:22;;;;;;;21.73;19.57;;;11.30;99.90;;;;;;4953109;29;20193;-68
2022/05/08 02:40:47;;;;;;;21.97;20.00;;;11.20;99.90;;;;;;4954829;29;20197;-68
2022/05/08 02:43:14;;;;;;;22.97;20.83;;;11.20;99.90;;;;;;4953535;29;20185;-69
2022/05/08 02:45:40;;;;;;;22.73;20.67;;;11.20;99.90;;;;;;4948136;29;20180;-68
2022/05/08 02:48:08;;;;;;;23.10;21.03;;;11.20;99.90;;;;;;4953898;28;20476;-68
2022/05/08 02:50:33;;;;;;;21.90;20.00;;;11.30;99.90;;;;;;4954732;28;20211;-68
2022/05/08 02:52:59;;;;;;;23.40;21.20;;;11.30;99.90;;;;;;4954660;29;20440;-68
2022/05/08 03:00:52;;;;;;;24.53;22.23;;;11.30;99.90;;;;;;4953808;29;20815;-70
2022/05/08 03:03:18;;;;;;;23.57;21.47;;;11.20;99.90;;;;;;4954386;29;20519;-69
2022/05/08 03:05:47;;;;;;;22.60;20.60;;;11.30;99.90;;;;;;4954281;29;20200;-70
2022/05/08 03:08:15;;;;;;;23.83;21.70;;;11.20;99.90;;;;;;4955531;29;20204;-68
2022/05/08 03:13:26;;;;;;;22.87;20.87;;;11.20;99.90;;;;;;4950852;29;20833;-70
2022/05/08 03:15:51;;;;;;;23.90;21.73;;;11.20;99.90;;;;;;4952663;28;20440;-70
2022/05/08 03:18:18;;;;;;;24.00;21.90;;;11.10;99.90;;;;;;4954761;29;20212;-70
2022/05/08 03:20:44;;;;;;;23.73;21.50;;;11.20;99.90;;;;;;4953425;29;20240;-69
2022/05/08 03:23:09;;;;;;;24.60;22.40;;;11.10;99.90;;;;;;4955135;29;20436;-70
2022/05/08 03:25:35;;;;;;;24.47;22.13;;;11.10;99.90;;;;;;4951056;29;20885;-70
2022/05/08 03:28:01;;;;;;;25.77;23.37;;;11.00;99.90;;;;;;4954936;29;20702;-70
2022/05/08 03:30:28;;;;;;;24.37;22.17;;;11.00;99.90;;;;;;4952604;29;20468;-70
2022/05/08 03:32:55;;;;;;;24.20;21.97;;;11.00;99.90;;;;;;4952179;29;20176;-70
2022/05/08 03:35:22;;;;;;;24.50;22.10;;;11.00;99.90;;;;;;4952414;29;20463;-70
2022/05/08 03:37:47;;;;;;;25.27;22.93;;;11.00;99.90;;;;;;4955061;29;20543;-70
2022/05/08 03:40:13;;;;;;;25.07;22.87;;;10.90;99.90;;;;;;4953046;29;20200;-71
2022/05/08 03:42:38;;;;;;;25.03;22.63;;;10.90;99.90;;;;;;4954289;29;20227;-71
2022/05/08 03:45:04;;;;;;;23.80;21.60;;;10.80;99.90;;;;;;4950421;28;20222;-70
2022/05/08 03:47:30;;;;;;;24.27;22.13;;;10.80;99.90;;;;;;4953785;29;20188;-69
2022/05/08 03:49:56;;;;;;;26.63;24.03;;;10.80;99.90;;;;;;4951336;29;20278;-70
2022/05/08 03:52:21;;;;;;;24.63;22.47;;;10.70;99.90;;;;;;4953886;28;20173;-70
2022/05/08 03:54:47;;;;;;;25.63;23.13;;;10.80;99.90;;;;;;4954196;29;20444;-70
2022/05/08 03:57:12;;;;;;;25.70;23.23;;;10.80;99.90;;;;;;4952647;29;20187;-70
2022/05/08 03:59:38;;;;;;;23.13;20.97;;;10.80;99.90;;;;;;4951241;29;20216;-70
2022/05/08 04:02:03;;;;;;;24.57;22.20;;;10.80;99.90;;;;;;4953305;29;20181;-70
2022/05/08 04:04:29;;;;;;;24.77;22.43;;;10.70;99.90;;;;;;4954508;29;20188;-70
2022/05/08 04:06:54;;;;;;;25.57;23.27;;;10.60;99.90;;;;;;4953365;28;20185;-70
2022/05/08 04:09:20;;;;;;;23.40;21.17;;;10.60;99.90;;;;;;4953676;28;20699;-70
2022/05/08 04:11:45;;;;;;;26.13;22.97;;;10.60;99.90;;;;;;4952228;29;20319;-70
2022/05/08 04:14:11;;;;;;;23.30;21.00;;;10.60;99.90;;;;;;4951775;29;20601;-70
2022/05/08 04:16:36;;;;;;;25.70;23.23;;;10.60;99.90;;;;;;4952359;29;20231;-70
2022/05/08 04:19:02;;;;;;;23.87;21.60;;;10.70;99.90;;;;;;4955032;28;20469;-70
2022/05/08 04:21:27;;;;;;;27.20;24.60;;;10.70;99.90;;;;;;4952886;29;20199;-70
2022/05/08 04:26:37;;;;;;;26.43;23.77;;;10.70;99.90;;;;;;4950013;29;20234;-70
2022/05/08 04:29:03;;;;;;;24.53;22.07;;;10.70;99.90;;;;;;4951714;29;20512;-70
2022/05/08 04:31:29;;;;;;;26.43;23.73;;;10.60;99.90;;;;;;4951503;29;20205;-70
2022/05/08 04:33:55;;;;;;;25.53;23.03;;;10.60;99.90;;;;;;4954049;29;20252;-70
2022/05/08 04:36:20;;;;;;;25.80;23.50;;;10.60;99.90;;;;;;4951890;29;20295;-70
2022/05/08 04:38:46;;;;;;;25.80;23.40;;;10.70;99.90;;;;;;4953398;29;20319;-70
2022/05/08 04:41:12;;;;;;;25.97;23.60;;;10.70;99.90;;;;;;4949611;28;20184;-70
2022/05/08 04:43:37;;;;;;;25.60;23.13;;;10.80;99.90;;;;;;4954021;29;20185;-70
2022/05/08 04:46:03;;;;;;;23.70;21.43;;;10.70;99.90;;;;;;4951956;29;20177;-70
2022/05/08 04:48:29;;;;;;;31.70;28.50;;;10.70;99.90;;;;;;4953799;29;20232;-70
2022/05/08 04:50:54;;;;;;;32.60;29.30;;;10.70;99.90;;;;;;4952095;29;20989;-70
2022/05/08 04:53:20;;;;;;;30.20;25.20;;;10.80;99.90;;;;;;4952686;29;20201;-70
2022/05/08 04:55:45;;;;;;;26.23;23.80;;;10.90;99.90;;;;;;4950905;28;20181;-70
2022/05/08 04:58:11;;;;;;;25.70;22.97;;;10.90;99.90;;;;;;4950500;28;20675;-70
2022/05/08 05:00:37;;;;;;;25.30;22.90;;;10.90;99.90;;;;;;4952684;29;20609;-70
2022/05/08 05:03:03;;;;;;;23.47;21.27;;;10.90;99.90;;;;;;4953350;29;20276;-70
2022/05/08 05:05:29;;;;;;;24.93;22.53;;;10.90;99.90;;;;;;4950581;29;20248;-70
2022/05/08 05:07:54;;;;;;;24.80;22.33;;;10.90;99.90;;;;;;4953390;29;20472;-71
2022/05/08 05:10:20;;;;;;;23.00;20.83;;;10.80;99.90;;;;;;4950919;29;20240;-70
2022/05/08 05:12:45;;;;;;;23.07;20.97;;;10.80;99.90;;;;;;4952125;29;20204;-69
2022/05/08 05:15:11;;;;;;;22.73;20.70;;;10.80;99.90;;;;;;4951430;29;20180;-70
2022/05/08 05:17:37;;;;;;;26.03;23.50;;;10.80;99.90;;;;;;4953105;29;20169;-70
2022/05/08 05:20:06;;;;;;;22.97;20.77;;;10.90;99.90;;;;;;4951195;29;20816;-70
2022/05/08 05:22:31;;;;;;;24.97;22.57;;;11.00;99.90;;;;;;4952167;29;20663;-70
2022/05/08 05:24:58;;;;;;;24.93;22.73;;;11.10;99.90;;;;;;4949188;29;20491;-69
2022/05/08 05:27:24;;;;;;;21.97;19.87;;;11.10;99.90;;;;;;4951781;28;20191;-70
2022/05/08 05:29:50;;;;;;;22.77;20.50;;;11.10;99.90;;;;;;4951121;29;21021;-70
2022/05/08 05:32:16;;;;;;;23.10;20.40;;;11.10;99.90;;;;;;4951525;29;20440;-70
2022/05/08 05:34:41;;;;;;;22.77;20.77;;;11.10;99.90;;;;;;4952456;29;20439;-70
2022/05/08 05:37:07;;;;;;;24.50;22.00;;;11.20;99.90;;;;;;4949966;28;20680;-70
2022/05/08 05:39:34;;;;;;;24.17;22.00;;;11.20;99.90;;;;;;4948965;29;20414;-70
2022/05/08 05:41:59;;;;;;;20.87;18.97;;;11.30;99.90;;;;;;4951313;29;20177;-69
2022/05/08 05:44:26;;;;;;;22.00;19.87;;;11.30;99.90;;;;;;4952932;29;20790;-70
2022/05/08 05:49:38;;;;;;;24.63;21.20;;;11.40;99.90;;;;;;4949052;29;20484;-70
2022/05/08 05:52:05;;;;;;;23.00;20.90;;;11.30;99.90;;;;;;4949231;29;20447;-70
2022/05/08 05:54:31;;;;;;;24.47;22.10;;;11.30;99.90;;;;;;4951985;29;20492;-69
2022/05/08 05:56:56;;;;;;;23.40;21.13;;;11.30;99.90;;;;;;4951632;29;20941;-69
2022/05/08 05:59:22;;;;;;;23.03;20.93;;;11.40;99.90;;;;;;4951437;29;20196;-70
2022/05/08 06:01:48;;;;;;;23.70;21.47;;;11.40;99.90;;;;;;4952540;29;20183;-71
2022/05/08 06:04:14;;;;;;;24.93;22.73;;;11.50;99.90;;;;;;4949793;29;20265;-70
2022/05/08 06:06:39;;;;;;;24.17;21.77;;;11.60;99.90;;;;;;4951734;28;20448;-71
2022/05/08 06:09:05;;;;;;;24.30;22.10;;;11.80;99.90;;;;;;4959210;28;20208;-70
2022/05/08 06:11:30;;;;;;;24.97;22.77;;;11.90;99.90;;;;;;4957908;29;20219;-70
2022/05/08 06:13:56;;;;;;;25.47;23.07;;;12.00;99.90;;;;;;4959932;29;20176;-69
2022/05/08 06:16:22;;;;;;;24.60;22.43;;;12.00;99.90;;;;;;4957250;29;21016;-71
2022/05/08 06:18:47;;;;;;;23.00;20.90;;;12.10;99.90;;;;;;4957745;28;20204;-71
2022/05/08 06:21:13;;;;;;;23.50;21.60;;;12.30;99.90;;;;;;4941844;29;20212;-70
2022/05/08 06:23:38;;;;;;;25.90;23.60;;;12.30;99.90;;;;;;4958837;28;20599;-70
2022/05/08 06:26:04;;;;;;;25.40;23.10;;;12.40;99.90;;;;;;4959017;29;20177;-70
2022/05/08 06:28:30;;;;;;;23.30;21.27;;;12.60;99.90;;;;;;4958236;28;20291;-69
2022/05/08 06:30:56;;;;;;;25.70;23.40;;;12.80;99.90;;;;;;4957448;29;20303;-69
2022/05/08 06:33:21;;;;;;;24.50;22.00;;;13.10;99.90;;;;;;4958468;29;20519;-70
2022/05/08 06:35:47;;;;;;;24.23;22.10;;;13.20;99.90;;;;;;4958429;29;20609;-70
2022/05/08 06:38:12;;;;;;;24.17;21.77;;;13.30;99.90;;;;;;4957371;28;20200;-68
2022/05/08 06:40:39;;;;;;;24.80;22.60;;;13.40;99.90;;;;;;4958047;28;20200;-71
2022/05/08 06:43:05;;;;;;;22.60;20.77;;;13.50;99.90;;;;;;4957451;28;20177;-71
2022/05/08 06:45:31;;;;;;;24.07;21.97;;;13.60;99.90;;;;;;4958659;28;20452;-71
2022/05/08 06:47:56;;;;;;;24.30;22.17;;;13.60;99.90;;;;;;4958069;29;20522;-70
2022/05/08 06:50:22;;;;;;;24.57;22.37;;;13.80;99.90;;;;;;4958254;29;20207;-70
2022/05/08 06:52:48;;;;;;;29.47;26.67;;;13.90;99.90;;;;;;4957415;28;20213;-71
2022/05/08 06:55:13;;;;;;;29.43;26.83;;;14.00;99.90;;;;;;4957341;29;20173;-71
2022/05/08 06:57:39;;;;;;;28.13;25.27;;;14.10;99.90;;;;;;4958400;29;20988;-70
2022/05/08 07:02:50;;;;;;;25.23;22.93;;;14.30;99.90;;;;;;4957861;28;20569;-71
2022/05/08 07:05:16;;;;;;;26.20;23.80;;;14.40;99.90;;;;;;4957523;29;20444;-71
2022/05/08 07:07:42;;;;;;;24.67;22.57;;;14.50;99.90;;;;;;4956935;28;20473;-70
2022/05/08 07:10:08;;;;;;;26.10;23.90;;;14.70;99.90;;;;;;4958025;28;20949;-71
2022/05/08 07:12:36;;;;;;;24.30;22.20;;;14.90;99.90;;;;;;4958227;29;20573;-71
2022/05/08 07:15:03;;;;;;;24.03;22.03;;;15.00;99.90;;;;;;4954700;28;20548;-70
2022/05/08 07:17:29;;;;;;;24.80;22.70;;;15.20;99.90;;;;;;4958850;29;20960;-70
2022/05/08 07:19:55;;;;;;;25.30;23.10;;;15.40;99.90;;;;;;4955416;28;20444;-71
2022/05/08 07:22:21;;;;;;;25.70;23.43;;;15.50;99.90;;;;;;4936484;28;20481;-71
2022/05/08 07:24:47;;;;;;;23.90;21.80;;;15.50;99.90;;;;;;4953758;28;20489;-71
2022/05/08 07:27:12;;;;;;;24.23;22.10;;;15.60;99.90;;;;;;4952618;28;20185;-72
2022/05/08 07:29:41;;;;;;;23.73;21.90;;;15.70;99.90;;;;;;4954919;28;20683;-71
2022/05/08 07:32:07;;;;;;;24.23;22.07;;;15.80;99.90;;;;;;4953013;28;20574;-70
2022/05/08 07:37:17;;;;;;;23.37;21.43;;;16.10;99.90;;;;;;4953827;28;20184;-70
2022/05/08 07:39:42;;;;;;;23.90;21.87;;;16.40;99.90;;;;;;4954684;28;20452;-70
2022/05/08 07:42:08;;;;;;;22.17;20.37;;;16.70;99.90;;;;;;4954061;29;20224;-70
2022/05/08 07:44:33;;;;;;;22.20;20.30;;;17.00;99.90;;;;;;4954075;29;20558;-73
2022/05/08 07:47:00;;;;;;;22.10;20.07;;;17.00;99.90;;;;;;4961180;28;20221;-72
2022/05/08 07:49:26;;;;;;;20.57;18.77;;;17.20;99.90;;;;;;4954279;29;20275;-70
2022/05/08 07:51:51;;;;;;;21.20;19.30;;;17.30;99.90;;;;;;4956075;28;20953;-67
2022/05/08 07:54:17;;;;;;;20.23;18.50;;;17.40;99.90;;;;;;4959028;28;20209;-69
2022/05/08 07:56:43;;;;;;;21.80;20.13;;;17.70;99.90;;;;;;4957127;28;20624;-69
2022/05/08 07:59:09;;;;;;;19.97;18.17;;;17.80;99.90;;;;;;4956075;28;20200;-70
2022/05/08 08:01:34;;;;;;;18.43;16.97;;;18.00;99.90;;;;;;4954261;28;20651;-67
2022/05/08 08:04:01;;;;;;;19.40;17.90;;;18.20;99.90;;;;;;4955178;28;20251;-67
2022/05/08 08:06:27;;;;;;;19.77;18.07;;;18.40;99.90;;;;;;4951586;28;20184;-65
2022/05/08 08:08:53;;;;;;;17.93;16.43;;;18.40;99.90;;;;;;4952420;28;20460;-67
2022/05/08 08:11:20;;;;;;;20.20;18.43;;;18.50;99.90;;;;;;4952817;28;20460;-67
2022/05/08 08:13:46;;;;;;;18.90;17.30;;;18.20;99.90;;;;;;4954143;28;20491;-66
2022/05/08 08:16:12;;;;;;;18.10;16.50;;;18.30;99.90;;;;;;4953557;28;20463;-67
2022/05/08 08:18:42;;;;;;;17.27;15.77;;;18.50;99.90;;;;;;4953609;28;20484;-68
2022/05/08 08:21:09;;;;;;;18.33;16.73;;;18.70;99.90;;;;;;4952690;28;20437;-71
2022/05/08 08:23:35;;;;;;;16.97;15.43;;;18.80;99.90;;;;;;4956199;28;20447;-71
2022/05/08 08:26:00;;;;;;;15.10;14.00;;;19.00;99.90;;;;;;4955070;29;20909;-69
2022/05/08 08:28:26;;;;;;;18.50;17.00;;;19.20;99.90;;;;;;4953385;28;20307;-68
2022/05/08 08:30:51;;;;;;;17.87;16.17;;;19.40;99.90;;;;;;4954309;28;20255;-68
2022/05/08 08:33:17;;;;;;;16.67;15.30;;;19.50;99.90;;;;;;4953375;28;20181;-68
2022/05/08 08:35:42;;;;;;;16.90;15.60;;;19.50;99.90;;;;;;4954216;28;20181;-67
2022/05/08 08:38:08;;;;;;;18.17;16.53;;;19.70;99.90;;;;;;4954232;28;20641;-66
2022/05/08 08:40:39;;;;;;;19.43;17.80;;;19.90;99.90;;;;;;4954073;28;20565;-69
2022/05/08 08:43:07;;;;;;;17.70;16.13;;;20.20;99.90;;;;;;4950948;28;20184;-66
2022/05/08 08:48:28;;;;;;;16.50;15.10;;;20.50;99.90;;;;;;4953853;28;20502;-69
2022/05/08 08:50:55;;;;;;;18.30;16.73;;;20.90;99.90;;;;;;4953917;28;20494;-67
2022/05/08 08:53:22;;;;;;;17.60;16.00;;;21.40;99.90;;;;;;4953439;28;20432;-68
2022/05/08 08:55:49;;;;;;;16.90;15.53;;;21.50;99.90;;;;;;4954225;28;20942;-68
2022/05/08 08:58:16;;;;;;;16.43;15.13;;;21.70;99.90;;;;;;4954630;28;20460;-68
2022/05/08 09:00:42;;;;;;;15.83;14.53;;;21.70;99.90;;;;;;4953235;28;20938;-68
2022/05/08 09:03:08;;;;;;;15.20;14.00;;;21.70;99.90;;;;;;4955090;28;20440;-68
2022/05/08 09:05:35;;;;;;;16.90;15.50;;;21.90;99.90;;;;;;4952928;28;20575;-68
2022/05/08 09:08:01;;;;;;;14.60;13.50;;;21.90;99.90;;;;;;4953599;28;20192;-68
2022/05/08 09:10:28;;;;;;;16.17;14.87;;;21.80;99.90;;;;;;4953447;28;20468;-69
2022/05/08 09:12:56;;;;;;;15.00;13.80;;;22.10;99.90;;;;;;4952842;28;20440;-68
2022/05/08 09:15:34;;;;;;;13.47;12.47;;;22.10;99.90;;;;;;4953443;28;20437;-67
2022/05/08 09:18:05;;;;;;;14.23;13.13;;;21.90;99.90;;;;;;4953166;28;21003;-67
2022/05/08 09:20:33;;;;;;;13.33;12.10;;;22.20;99.90;;;;;;4953291;28;20487;-68
2022/05/08 09:23:03;;;;;;;13.87;12.87;;;22.20;99.90;;;;;;4953432;28;20476;-69
2022/05/08 09:25:43;;;;;;;13.90;12.80;;;22.30;99.90;;;;;;4952784;28;21017;-68
2022/05/08 09:28:09;;;;;;;13.03;12.07;;;22.60;99.90;;;;;;4946294;28;20490;-67
2022/05/08 09:30:35;;;;;;;14.43;12.93;;;23.00;99.90;;;;;;4953332;28;20460;-68
2022/05/08 09:33:02;;;;;;;13.03;12.10;;;23.10;99.90;;;;;;4952737;28;20454;-69
2022/05/08 09:35:44;;;;;;;13.87;12.87;;;23.30;99.40;;;;;;4953479;28;20318;-67
2022/05/08 09:38:09;;;;;;;13.10;11.97;;;23.30;99.30;;;;;;4947302;28;20456;-65
2022/05/08 09:40:35;;;;;;;11.87;11.00;;;23.60;98.40;;;;;;4952617;28;20589;-67
2022/05/08 09:43:00;;;;;;;12.63;11.73;;;23.40;98.40;;;;;;4951685;28;20620;-68
2022/05/08 09:45:26;;;;;;;12.80;11.90;;;23.10;98.00;;;;;;4953262;28;20196;-69
2022/05/08 09:47:51;;;;;;;13.90;12.90;;;23.20;97.40;;;;;;4952723;28;20205;-69
2022/05/08 09:50:18;;;;;;;12.57;11.67;;;23.30;96.60;;;;;;4952848;28;20228;-69
2022/05/08 09:52:45;;;;;;;12.30;11.20;;;23.40;95.70;;;;;;4953266;28;20185;-67
2022/05/08 09:55:14;;;;;;;13.17;12.17;;;23.50;95.60;;;;;;4952624;28;20439;-68
2022/05/08 09:57:40;;;;;;;12.57;11.63;;;23.70;94.70;;;;;;4952712;28;20460;-67
2022/05/08 10:00:08;;;;;;;14.47;13.37;;;23.80;94.00;;;;;;4952674;28;20591;-68
2022/05/08 10:02:35;;;;;;;13.30;12.40;;;23.60;94.20;;;;;;4952360;28;20184;-67
2022/05/08 10:05:02;;;;;;;11.73;10.97;;;23.90;93.60;;;;;;4952986;28;20436;-69
2022/05/08 10:07:28;;;;;;;12.83;11.83;;;24.60;93.40;;;;;;4953013;28;20441;-70
2022/05/08 10:15:29;;;;;;;12.30;11.40;;;24.30;90.20;;;;;;4953356;28;21016;-69
2022/05/08 10:18:21;;;;;;;11.30;10.43;;;24.00;91.20;;;;;;4952228;28;20475;-66
2022/05/08 10:20:59;;;;;;;10.83;10.03;;;24.60;88.50;;;;;;4952900;28;20455;-70
2022/05/08 10:23:37;;;;;;;11.70;10.60;;;25.10;89.50;;;;;;4952157;28;20969;-69
2022/05/08 10:26:15;;;;;;;9.70;9.00;;;25.80;86.70;;;;;;4952856;28;20472;-68
2022/05/08 10:29:10;;;;;;;10.50;9.60;;;25.40;86.20;;;;;;4952262;28;20479;-68
2022/05/08 10:31:50;;;;;;;10.03;8.97;;;25.30;86.50;;;;;;4952639;28;20483;-67
2022/05/08 10:34:28;;;;;;;10.00;9.30;;;25.70;85.80;;;;;;4946767;28;20491;-67
2022/05/08 10:37:11;;;;;;;10.70;9.70;;;26.00;81.30;;;;;;4952683;28;20439;-67
2022/05/08 10:39:45;;;;;;;11.97;10.77;;;26.60;79.30;;;;;;4952163;28;20978;-66
2022/05/08 10:42:29;;;;;;;10.43;9.67;;;27.00;78.20;;;;;;4952508;28;20446;-68
2022/05/08 10:44:56;;;;;;;10.97;9.93;;;26.60;76.70;;;;;;4952690;28;20502;-69
2022/05/08 10:47:34;;;;;;;11.00;10.20;;;26.80;77.00;;;;;;4952551;28;20436;-70
2022/05/08 10:50:00;;;;;;;9.97;9.20;;;26.90;75.50;;;;;;4950826;28;21041;-69
2022/05/08 10:52:26;;;;;;;10.67;9.77;;;27.00;74.80;;;;;;4952651;28;20436;-69
2022/05/08 10:54:59;;;;;;;9.37;8.77;;;26.80;75.10;;;;;;4955310;28;20436;-67
2022/05/08 10:57:31;;;;;;;10.03;9.20;;;27.10;73.70;;;;;;4955371;28;20224;-68
2022/05/08 10:59:57;;;;;;;8.17;7.57;;;27.90;71.60;;;;;;4955178;28;20462;-69
2022/05/08 11:02:43;;;;;;;8.07;7.47;;;27.60;69.70;;;;;;4952221;28;20449;-68
2022/05/08 11:05:16;;;;;;;7.23;6.73;;;27.00;66.70;;;;;;4952606;28;20821;-68
2022/05/08 11:07:52;;;;;;;6.67;6.27;;;27.20;67.50;;;;;;4955122;28;20526;-67
2022/05/08 11:10:24;;;;;;;7.00;6.50;;;27.80;66.00;;;;;;4949849;28;20467;-66
2022/05/08 11:13:04;;;;;;;7.30;6.70;;;28.20;63.30;;;;;;4955969;28;20440;-66
2022/05/08 11:15:38;;;;;;;7.10;6.40;;;28.10;62.00;;;;;;4956095;28;20440;-65
2022/05/08 11:18:10;;;;;;;6.73;6.30;;;28.40;60.80;;;;;;4953067;28;20539;-67
2022/05/08 11:20:47;;;;;;;6.10;5.70;;;27.90;60.60;;;;;;4955753;28;20436;-67
2022/05/08 11:23:14;;;;;;;7.57;6.80;;;27.90;60.40;;;;;;4951790;28;20507;-68
2022/05/08 11:25:44;;;;;;;8.33;7.63;;;27.60;60.00;;;;;;4954969;28;20527;-68
2022/05/08 11:28:15;;;;;;;6.30;5.80;;;27.40;59.90;;;;;;4955404;28;20472;-68
2022/05/08 11:30:41;;;;;;;7.40;6.67;;;27.40;61.90;;;;;;4939116;29;20488;-69
2022/05/08 11:36:06;;;;;;;6.70;6.10;;;28.00;59.90;;;;;;4955971;28;20446;-68
2022/05/08 11:38:50;;;;;;;7.07;6.43;;;26.80;59.00;;;;;;4955763;28;20515;-68
2022/05/08 11:41:27;;;;;;;6.80;5.70;;;26.80;60.60;;;;;;4954395;28;20453;-67
2022/05/08 11:43:57;;;;;;;7.13;6.57;;;28.20;58.70;;;;;;4955880;28;20444;-69
2022/05/08 11:46:36;;;;;;;6.77;6.27;;;28.90;57.30;;;;;;4955644;28;20822;-67
2022/05/08 11:49:18;;;;;;;6.40;5.90;;;29.00;56.10;;;;;;4939184;28;20605;-68
2022/05/08 11:51:45;;;;;;;7.30;6.70;;;28.50;56.30;;;;;;4953021;28;20433;-67
2022/05/08 11:54:19;;;;;;;8.23;6.03;;;27.80;56.30;;;;;;4955247;28;21055;-68
2022/05/08 11:56:45;;;;;;;9.47;8.70;;;26.90;57.30;;;;;;4955190;28;20523;-69
2022/05/08 11:59:19;;;;;;;6.63;6.13;;;27.70;57.30;;;;;;4954319;28;20539;-68
2022/05/08 12:01:52;;;;;;;6.87;6.40;;;28.30;56.70;;;;;;4955287;28;20977;-69
2022/05/08 12:04:33;;;;;;;7.80;7.10;;;29.40;55.80;;;;;;4954774;28;20523;-66
2022/05/08 12:07:10;;;;;;;8.03;6.00;;;29.90;54.00;;;;;;4954606;28;20942;-67
2022/05/08 12:09:48;;;;;;;6.70;6.10;;;28.70;55.10;;;;;;4954922;28;20535;-66
2022/05/08 12:12:27;;;;;;;8.90;6.43;;;28.80;55.50;;;;;;4948953;28;20424;-67
2022/05/08 12:15:06;;;;;;;6.50;6.00;;;29.30;54.80;;;;;;4954940;28;20428;-68
2022/05/08 12:17:54;;;;;;;6.40;5.90;;;28.50;54.90;;;;;;4954983;28;20439;-69
2022/05/08 12:20:32;;;;;;;6.43;5.93;;;28.00;56.00;;;;;;4949345;28;20443;-69
2022/05/08 12:23:06;;;;;;;6.40;5.90;;;28.60;56.20;;;;;;4954605;28;20443;-69
2022/05/08 12:25:34;;;;;;;5.63;5.20;;;28.70;54.00;;;;;;4955782;28;20436;-68
2022/05/08 12:28:00;;;;;;;5.77;5.43;;;28.00;52.50;;;;;;4957909;28;20480;-69
2022/05/08 12:30:25;;;;;;;6.93;6.33;;;27.20;55.00;;;;;;4954752;29;20535;-69
2022/05/08 12:32:51;;;;;;;5.50;5.10;;;26.90;54.50;;;;;;4954567;28;20869;-69
2022/05/08 12:35:18;;;;;;;5.13;4.63;;;26.90;53.10;;;;;;4954012;28;20334;-69
2022/05/08 12:37:47;;;;;;;7.00;6.40;;;28.00;53.20;;;;;;4954460;28;20215;-67
2022/05/08 12:40:14;;;;;;;7.87;7.27;;;28.80;54.20;;;;;;4954163;28;20519;-68
2022/05/08 12:42:39;;;;;;;6.83;6.33;;;29.10;53.90;;;;;;4954465;28;20523;-69
2022/05/08 12:45:06;;;;;;;5.90;5.50;;;29.10;54.30;;;;;;4954291;28;20527;-67
2022/05/08 12:47:32;;;;;;;7.17;6.67;;;29.40;54.00;;;;;;4954579;28;20239;-69
2022/05/08 12:49:58;;;;;;;6.43;5.93;;;29.40;53.20;;;;;;4953615;28;20484;-69
2022/05/08 12:52:23;;;;;;;7.67;7.10;;;28.80;54.30;;;;;;4953545;28;20861;-69
2022/05/08 12:54:49;;;;;;;6.60;6.20;;;28.10;55.20;;;;;;4954277;28;20579;-68
2022/05/08 12:59:59;;;;;;;8.47;7.73;;;27.50;56.10;;;;;;4953874;28;20236;-69
2022/05/08 13:02:26;;;;;;;8.17;6.73;;;27.80;56.40;;;;;;4954124;28;20436;-69
2022/05/08 13:04:53;;;;;;;6.90;6.50;;;28.50;55.80;;;;;;4954205;28;20438;-70
2022/05/08 13:07:19;;;;;;;6.63;6.13;;;28.70;55.30;;;;;;4953891;28;20469;-67
2022/05/08 13:09:44;;;;;;;6.73;6.03;;;28.20;54.80;;;;;;4953002;28;20467;-68